sensor_id;sensor_type;location;lat;lon;timestamp;P1;durP1;ratioP1;P2;durP2;ratioP2
9729;SDS011;4904;49.152;11.004;2023-06-22T00:00:47;8.98;;;7.88;;
9729;SDS011;4904;49.152;11.004;2023-06-22T00:03:15;9.80;;;7.85;;
9729;SDS011;4904;49.152;11.004;2023-06-22T00:05:42;8.25;;;7.28;;
9729;SDS011;4904;49.152;11.004;2023-06-22T00:08:08;10.38;;;7.55;;
9729;SDS011;4904;49.152;11.004;2023-06-22T00:10:35;8.55;;;7.75;;
9729;SDS011;4904;49.152;11.004;2023-06-22T00:13:02;9.77;;;7.95;;
9729;SDS011;4904;49.152;11.004;2023-06-22T00:15:31;8.77;;;7.88;;
9729;SDS011;4904;49.152;11.004;2023-06-22T00:17:57;8.68;;;7.75;;
9729;SDS011;4904;49.152;11.004;2023-06-22T00:20:25;11.15;;;8.20;;
9729;SDS011;4904;49.152;11.004;2023-06-22T00:22:54;9.10;;;7.55;;
9729;SDS011;4904;49.152;11.004;2023-06-22T00:25:21;8.63;;;7.60;;
9729;SDS011;4904;49.152;11.004;2023-06-22T00:27:48;14.38;;;8.30;;
9729;SDS011;4904;49.152;11.004;2023-06-22T00:30:15;9.73;;;8.73;;
9729;SDS011;4904;49.152;11.004;2023-06-22T00:32:44;9.43;;;8.27;;
9729;SDS011;4904;49.152;11.004;2023-06-22T00:35:12;8.65;;;7.78;;
9729;SDS011;4904;49.152;11.004;2023-06-22T00:37:39;10.25;;;8.02;;
9729;SDS011;4904;49.152;11.004;2023-06-22T00:40:07;9.43;;;7.57;;
9729;SDS011;4904;49.152;11.004;2023-06-22T00:42:36;9.57;;;7.70;;
9729;SDS011;4904;49.152;11.004;2023-06-22T00:45:04;10.93;;;9.80;;
9729;SDS011;4904;49.152;11.004;2023-06-22T00:47:32;10.90;;;9.82;;
9729;SDS011;4904;49.152;11.004;2023-06-22T00:50:02;11.82;;;8.88;;
9729;SDS011;4904;49.152;11.004;2023-06-22T00:52:32;12.90;;;9.60;;
9729;SDS011;4904;49.152;11.004;2023-06-22T00:55:00;11.23;;;9.23;;
9729;SDS011;4904;49.152;11.004;2023-06-22T00:57:28;11.15;;;9.13;;
9729;SDS011;4904;49.152;11.004;2023-06-22T00:59:55;11.27;;;9.23;;
9729;SDS011;4904;49.152;11.004;2023-06-22T01:02:22;15.52;;;9.07;;
9729;SDS011;4904;49.152;11.004;2023-06-22T01:04:49;10.25;;;8.40;;
9729;SDS011;4904;49.152;11.004;2023-06-22T01:07:19;9.93;;;8.95;;
9729;SDS011;4904;49.152;11.004;2023-06-22T01:09:54;10.68;;;8.75;;
9729;SDS011;4904;49.152;11.004;2023-06-22T01:12:24;10.85;;;8.35;;
9729;SDS011;4904;49.152;11.004;2023-06-22T01:14:58;10.60;;;8.27;;
9729;SDS011;4904;49.152;11.004;2023-06-22T01:17:31;9.65;;;8.65;;
9729;SDS011;4904;49.152;11.004;2023-06-22T01:19:59;9.95;;;8.68;;
9729;SDS011;4904;49.152;11.004;2023-06-22T01:22:33;10.77;;;8.27;;
9729;SDS011;4904;49.152;11.004;2023-06-22T01:25:10;9.43;;;8.30;;
9729;SDS011;4904;49.152;11.004;2023-06-22T01:27:47;9.13;;;8.23;;
9729;SDS011;4904;49.152;11.004;2023-06-22T01:30:27;10.13;;;7.93;;
9729;SDS011;4904;49.152;11.004;2023-06-22T01:32:58;9.40;;;8.52;;
9729;SDS011;4904;49.152;11.004;2023-06-22T01:35:26;11.88;;;8.15;;
9729;SDS011;4904;49.152;11.004;2023-06-22T01:37:55;8.88;;;7.88;;
9729;SDS011;4904;49.152;11.004;2023-06-22T01:40:22;9.23;;;8.13;;
9729;SDS011;4904;49.152;11.004;2023-06-22T01:42:51;9.40;;;8.38;;
9729;SDS011;4904;49.152;11.004;2023-06-22T01:45:18;10.13;;;8.48;;
9729;SDS011;4904;49.152;11.004;2023-06-22T01:47:46;10.07;;;7.97;;
9729;SDS011;4904;49.152;11.004;2023-06-22T01:50:13;9.15;;;8.20;;
9729;SDS011;4904;49.152;11.004;2023-06-22T01:52:41;10.93;;;8.90;;
9729;SDS011;4904;49.152;11.004;2023-06-22T01:55:08;10.88;;;8.68;;
9729;SDS011;4904;49.152;11.004;2023-06-22T01:57:35;14.48;;;10.00;;
9729;SDS011;4904;49.152;11.004;2023-06-22T02:00:03;11.00;;;9.48;;
9729;SDS011;4904;49.152;11.004;2023-06-22T02:02:33;10.13;;;8.73;;
9729;SDS011;4904;49.152;11.004;2023-06-22T02:05:09;13.18;;;9.52;;
9729;SDS011;4904;49.152;11.004;2023-06-22T02:07:39;11.18;;;8.35;;
9729;SDS011;4904;49.152;11.004;2023-06-22T02:10:10;12.88;;;9.50;;
9729;SDS011;4904;49.152;11.004;2023-06-22T02:12:40;10.45;;;9.30;;
9729;SDS011;4904;49.152;11.004;2023-06-22T02:15:08;11.30;;;9.32;;
9729;SDS011;4904;49.152;11.004;2023-06-22T02:17:37;9.82;;;8.93;;
9729;SDS011;4904;49.152;11.004;2023-06-22T02:20:05;11.32;;;9.70;;
9729;SDS011;4904;49.152;11.004;2023-06-22T02:22:35;10.15;;;9.25;;
9729;SDS011;4904;49.152;11.004;2023-06-22T02:25:02;10.57;;;8.82;;
9729;SDS011;4904;49.152;11.004;2023-06-22T02:27:29;10.63;;;9.50;;
9729;SDS011;4904;49.152;11.004;2023-06-22T02:29:56;11.05;;;9.85;;
9729;SDS011;4904;49.152;11.004;2023-06-22T02:32:23;10.50;;;9.38;;
9729;SDS011;4904;49.152;11.004;2023-06-22T02:34:50;11.02;;;10.00;;
9729;SDS011;4904;49.152;11.004;2023-06-22T02:37:17;11.07;;;9.98;;
9729;SDS011;4904;49.152;11.004;2023-06-22T02:39:45;10.23;;;9.23;;
9729;SDS011;4904;49.152;11.004;2023-06-22T02:42:12;9.95;;;9.05;;
9729;SDS011;4904;49.152;11.004;2023-06-22T02:44:40;9.48;;;8.30;;
9729;SDS011;4904;49.152;11.004;2023-06-22T02:47:07;9.50;;;8.50;;
9729;SDS011;4904;49.152;11.004;2023-06-22T02:49:34;12.23;;;9.77;;
9729;SDS011;4904;49.152;11.004;2023-06-22T02:52:01;11.57;;;10.38;;
9729;SDS011;4904;49.152;11.004;2023-06-22T02:54:28;11.70;;;10.50;;
9729;SDS011;4904;49.152;11.004;2023-06-22T02:56:56;13.30;;;10.82;;
9729;SDS011;4904;49.152;11.004;2023-06-22T02:59:23;11.50;;;10.32;;
9729;SDS011;4904;49.152;11.004;2023-06-22T03:01:50;11.38;;;10.27;;
9729;SDS011;4904;49.152;11.004;2023-06-22T03:04:17;11.95;;;10.75;;
9729;SDS011;4904;49.152;11.004;2023-06-22T03:06:44;13.63;;;11.18;;
9729;SDS011;4904;49.152;11.004;2023-06-22T03:09:16;12.35;;;11.13;;
9729;SDS011;4904;49.152;11.004;2023-06-22T03:11:43;12.68;;;11.38;;
9729;SDS011;4904;49.152;11.004;2023-06-22T03:14:11;13.07;;;11.73;;
9729;SDS011;4904;49.152;11.004;2023-06-22T03:16:38;12.73;;;11.40;;
9729;SDS011;4904;49.152;11.004;2023-06-22T03:19:06;15.23;;;12.57;;
9729;SDS011;4904;49.152;11.004;2023-06-22T03:21:32;15.00;;;12.45;;
9729;SDS011;4904;49.152;11.004;2023-06-22T03:23:59;13.38;;;11.95;;
9729;SDS011;4904;49.152;11.004;2023-06-22T03:26:26;12.27;;;10.90;;
9729;SDS011;4904;49.152;11.004;2023-06-22T03:28:53;11.38;;;10.27;;
9729;SDS011;4904;49.152;11.004;2023-06-22T03:31:22;11.68;;;10.52;;
9729;SDS011;4904;49.152;11.004;2023-06-22T03:33:50;12.77;;;10.80;;
9729;SDS011;4904;49.152;11.004;2023-06-22T03:36:17;11.60;;;10.38;;
9729;SDS011;4904;49.152;11.004;2023-06-22T03:38:45;11.85;;;10.13;;
9729;SDS011;4904;49.152;11.004;2023-06-22T03:41:12;11.15;;;9.98;;
9729;SDS011;4904;49.152;11.004;2023-06-22T03:43:39;12.07;;;9.93;;
9729;SDS011;4904;49.152;11.004;2023-06-22T03:46:06;11.75;;;10.25;;
9729;SDS011;4904;49.152;11.004;2023-06-22T03:48:34;11.88;;;10.68;;
9729;SDS011;4904;49.152;11.004;2023-06-22T03:51:01;11.77;;;10.68;;
9729;SDS011;4904;49.152;11.004;2023-06-22T03:53:29;9.82;;;8.82;;
9729;SDS011;4904;49.152;11.004;2023-06-22T03:55:56;13.77;;;10.27;;
9729;SDS011;4904;49.152;11.004;2023-06-22T03:58:23;13.38;;;9.68;;
9729;SDS011;4904;49.152;11.004;2023-06-22T04:00:51;11.65;;;9.05;;
9729;SDS011;4904;49.152;11.004;2023-06-22T04:03:19;10.90;;;9.30;;
9729;SDS011;4904;49.152;11.004;2023-06-22T04:05:47;14.40;;;9.68;;
9729;SDS011;4904;49.152;11.004;2023-06-22T04:08:14;10.20;;;9.05;;
9729;SDS011;4904;49.152;11.004;2023-06-22T04:10:42;10.50;;;9.40;;
9729;SDS011;4904;49.152;11.004;2023-06-22T04:13:10;11.52;;;8.73;;
9729;SDS011;4904;49.152;11.004;2023-06-22T04:15:36;9.68;;;8.77;;
9729;SDS011;4904;49.152;11.004;2023-06-22T04:18:03;9.63;;;8.63;;
9729;SDS011;4904;49.152;11.004;2023-06-22T04:20:31;11.73;;;9.55;;
9729;SDS011;4904;49.152;11.004;2023-06-22T04:22:59;12.27;;;9.55;;
9729;SDS011;4904;49.152;11.004;2023-06-22T04:25:26;9.38;;;8.48;;
9729;SDS011;4904;49.152;11.004;2023-06-22T04:27:53;9.90;;;8.93;;
9729;SDS011;4904;49.152;11.004;2023-06-22T04:30:20;10.27;;;9.27;;
9729;SDS011;4904;49.152;11.004;2023-06-22T04:32:47;11.43;;;9.57;;
9729;SDS011;4904;49.152;11.004;2023-06-22T04:35:21;12.32;;;9.38;;
9729;SDS011;4904;49.152;11.004;2023-06-22T04:37:48;10.02;;;9.07;;
9729;SDS011;4904;49.152;11.004;2023-06-22T04:40:21;10.10;;;9.10;;
9729;SDS011;4904;49.152;11.004;2023-06-22T04:42:48;13.05;;;10.15;;
9729;SDS011;4904;49.152;11.004;2023-06-22T04:45:18;11.35;;;10.18;;
9729;SDS011;4904;49.152;11.004;2023-06-22T04:47:46;11.27;;;10.02;;
9729;SDS011;4904;49.152;11.004;2023-06-22T04:50:13;12.80;;;11.50;;
9729;SDS011;4904;49.152;11.004;2023-06-22T04:52:40;12.40;;;11.20;;
9729;SDS011;4904;49.152;11.004;2023-06-22T04:55:07;11.27;;;10.07;;
9729;SDS011;4904;49.152;11.004;2023-06-22T04:57:36;11.90;;;10.85;;
9729;SDS011;4904;49.152;11.004;2023-06-22T05:00:05;12.60;;;11.35;;
9729;SDS011;4904;49.152;11.004;2023-06-22T05:02:42;14.10;;;10.90;;
9729;SDS011;4904;49.152;11.004;2023-06-22T05:05:09;12.40;;;11.05;;
9729;SDS011;4904;49.152;11.004;2023-06-22T05:07:39;13.30;;;12.00;;
9729;SDS011;4904;49.152;11.004;2023-06-22T05:10:08;13.23;;;11.90;;
9729;SDS011;4904;49.152;11.004;2023-06-22T05:12:38;13.35;;;12.15;;
9729;SDS011;4904;49.152;11.004;2023-06-22T05:15:07;12.57;;;11.40;;
9729;SDS011;4904;49.152;11.004;2023-06-22T05:17:35;12.88;;;11.68;;
9729;SDS011;4904;49.152;11.004;2023-06-22T05:20:08;12.35;;;10.98;;
9729;SDS011;4904;49.152;11.004;2023-06-22T05:22:35;13.25;;;11.07;;
9729;SDS011;4904;49.152;11.004;2023-06-22T05:25:02;12.20;;;10.93;;
9729;SDS011;4904;49.152;11.004;2023-06-22T05:27:30;13.32;;;11.93;;
9729;SDS011;4904;49.152;11.004;2023-06-22T05:29:58;14.00;;;12.50;;
9729;SDS011;4904;49.152;11.004;2023-06-22T05:32:25;13.55;;;12.25;;
9729;SDS011;4904;49.152;11.004;2023-06-22T05:34:52;13.68;;;11.73;;
9729;SDS011;4904;49.152;11.004;2023-06-22T05:37:19;13.23;;;11.05;;
9729;SDS011;4904;49.152;11.004;2023-06-22T05:39:46;13.25;;;11.90;;
9729;SDS011;4904;49.152;11.004;2023-06-22T05:42:13;12.98;;;11.75;;
9729;SDS011;4904;49.152;11.004;2023-06-22T05:44:40;13.70;;;12.40;;
9729;SDS011;4904;49.152;11.004;2023-06-22T05:47:08;14.38;;;12.55;;
9729;SDS011;4904;49.152;11.004;2023-06-22T05:49:35;12.93;;;11.55;;
9729;SDS011;4904;49.152;11.004;2023-06-22T05:52:02;12.77;;;10.80;;
9729;SDS011;4904;49.152;11.004;2023-06-22T05:54:30;12.35;;;10.18;;
9729;SDS011;4904;49.152;11.004;2023-06-22T05:56:57;11.68;;;9.95;;
9729;SDS011;4904;49.152;11.004;2023-06-22T05:59:24;11.73;;;10.52;;
9729;SDS011;4904;49.152;11.004;2023-06-22T06:01:51;11.85;;;10.32;;
9729;SDS011;4904;49.152;11.004;2023-06-22T06:04:19;11.95;;;9.80;;
9729;SDS011;4904;49.152;11.004;2023-06-22T06:06:46;11.98;;;10.48;;
9729;SDS011;4904;49.152;11.004;2023-06-22T06:09:13;11.65;;;10.55;;
9729;SDS011;4904;49.152;11.004;2023-06-22T06:11:40;11.82;;;10.52;;
9729;SDS011;4904;49.152;11.004;2023-06-22T06:14:07;11.80;;;10.52;;
9729;SDS011;4904;49.152;11.004;2023-06-22T06:16:34;12.48;;;10.32;;
9729;SDS011;4904;49.152;11.004;2023-06-22T06:19:01;10.85;;;9.75;;
9729;SDS011;4904;49.152;11.004;2023-06-22T06:21:29;12.15;;;9.48;;
9729;SDS011;4904;49.152;11.004;2023-06-22T06:23:56;12.00;;;9.13;;
9729;SDS011;4904;49.152;11.004;2023-06-22T06:26:23;11.00;;;9.95;;
9729;SDS011;4904;49.152;11.004;2023-06-22T06:28:54;10.55;;;9.07;;
9729;SDS011;4904;49.152;11.004;2023-06-22T06:31:22;10.70;;;8.77;;
9729;SDS011;4904;49.152;11.004;2023-06-22T06:33:49;10.32;;;9.10;;
9729;SDS011;4904;49.152;11.004;2023-06-22T06:36:16;11.73;;;9.77;;
9729;SDS011;4904;49.152;11.004;2023-06-22T06:38:44;10.15;;;8.65;;
9729;SDS011;4904;49.152;11.004;2023-06-22T06:41:12;10.88;;;8.77;;
9729;SDS011;4904;49.152;11.004;2023-06-22T06:43:39;8.75;;;7.88;;
9729;SDS011;4904;49.152;11.004;2023-06-22T06:46:07;9.73;;;7.68;;
9729;SDS011;4904;49.152;11.004;2023-06-22T06:48:34;8.30;;;7.47;;
9729;SDS011;4904;49.152;11.004;2023-06-22T06:51:01;10.05;;;7.80;;
9729;SDS011;4904;49.152;11.004;2023-06-22T06:53:28;9.90;;;7.55;;
9729;SDS011;4904;49.152;11.004;2023-06-22T06:55:56;9.07;;;7.75;;
9729;SDS011;4904;49.152;11.004;2023-06-22T06:58:24;7.60;;;6.80;;
9729;SDS011;4904;49.152;11.004;2023-06-22T07:00:51;9.50;;;7.88;;
9729;SDS011;4904;49.152;11.004;2023-06-22T07:03:17;9.63;;;7.60;;
9729;SDS011;4904;49.152;11.004;2023-06-22T07:05:44;7.70;;;6.43;;
9729;SDS011;4904;49.152;11.004;2023-06-22T07:08:11;7.28;;;6.32;;
9729;SDS011;4904;49.152;11.004;2023-06-22T07:10:38;7.78;;;6.28;;
9729;SDS011;4904;49.152;11.004;2023-06-22T07:13:06;9.23;;;6.70;;
9729;SDS011;4904;49.152;11.004;2023-06-22T07:15:33;7.00;;;6.35;;
9729;SDS011;4904;49.152;11.004;2023-06-22T07:18:00;6.70;;;5.95;;
9729;SDS011;4904;49.152;11.004;2023-06-22T07:20:27;7.28;;;5.95;;
9729;SDS011;4904;49.152;11.004;2023-06-22T07:22:54;6.63;;;6.03;;
9729;SDS011;4904;49.152;11.004;2023-06-22T07:25:21;6.82;;;5.70;;
9729;SDS011;4904;49.152;11.004;2023-06-22T07:27:56;6.13;;;4.75;;
9729;SDS011;4904;49.152;11.004;2023-06-22T07:30:26;6.63;;;5.47;;
9729;SDS011;4904;49.152;11.004;2023-06-22T07:32:53;9.45;;;5.85;;
9729;SDS011;4904;49.152;11.004;2023-06-22T07:35:20;5.50;;;4.70;;
9729;SDS011;4904;49.152;11.004;2023-06-22T07:37:47;9.45;;;5.22;;
9729;SDS011;4904;49.152;11.004;2023-06-22T07:40:14;5.93;;;4.75;;
9729;SDS011;4904;49.152;11.004;2023-06-22T07:42:41;5.78;;;5.20;;
9729;SDS011;4904;49.152;11.004;2023-06-22T07:45:08;7.70;;;5.65;;
9729;SDS011;4904;49.152;11.004;2023-06-22T07:47:36;5.38;;;4.53;;
9729;SDS011;4904;49.152;11.004;2023-06-22T07:50:03;8.50;;;4.72;;
9729;SDS011;4904;49.152;11.004;2023-06-22T07:52:31;7.13;;;4.10;;
9729;SDS011;4904;49.152;11.004;2023-06-22T07:54:58;5.22;;;4.50;;
9729;SDS011;4904;49.152;11.004;2023-06-22T07:57:25;6.50;;;4.60;;
9729;SDS011;4904;49.152;11.004;2023-06-22T07:59:58;7.47;;;4.53;;
9729;SDS011;4904;49.152;11.004;2023-06-22T08:02:25;5.45;;;4.07;;
9729;SDS011;4904;49.152;11.004;2023-06-22T08:04:54;6.53;;;3.88;;
9729;SDS011;4904;49.152;11.004;2023-06-22T08:07:20;10.10;;;4.43;;
9729;SDS011;4904;49.152;11.004;2023-06-22T08:09:47;6.70;;;4.30;;
9729;SDS011;4904;49.152;11.004;2023-06-22T08:12:15;7.45;;;4.03;;
9729;SDS011;4904;49.152;11.004;2023-06-22T08:14:42;6.18;;;4.10;;
9729;SDS011;4904;49.152;11.004;2023-06-22T08:17:11;4.82;;;4.40;;
9729;SDS011;4904;49.152;11.004;2023-06-22T08:19:39;5.28;;;4.05;;
9729;SDS011;4904;49.152;11.004;2023-06-22T08:22:08;9.05;;;4.65;;
9729;SDS011;4904;49.152;11.004;2023-06-22T08:24:35;6.47;;;4.32;;
9729;SDS011;4904;49.152;11.004;2023-06-22T08:27:02;6.60;;;4.45;;
9729;SDS011;4904;49.152;11.004;2023-06-22T08:29:29;5.90;;;3.92;;
9729;SDS011;4904;49.152;11.004;2023-06-22T08:31:56;12.10;;;4.47;;
9729;SDS011;4904;49.152;11.004;2023-06-22T08:34:23;5.38;;;3.85;;
9729;SDS011;4904;49.152;11.004;2023-06-22T08:36:52;4.95;;;4.30;;
9729;SDS011;4904;49.152;11.004;2023-06-22T08:39:21;7.63;;;4.22;;
9729;SDS011;4904;49.152;11.004;2023-06-22T08:41:48;6.72;;;4.28;;
9729;SDS011;4904;49.152;11.004;2023-06-22T08:44:18;6.50;;;4.05;;
9729;SDS011;4904;49.152;11.004;2023-06-22T08:46:45;7.15;;;4.38;;
9729;SDS011;4904;49.152;11.004;2023-06-22T08:49:12;5.40;;;3.72;;
9729;SDS011;4904;49.152;11.004;2023-06-22T08:51:40;7.80;;;3.88;;
9729;SDS011;4904;49.152;11.004;2023-06-22T08:54:07;6.45;;;4.13;;
9729;SDS011;4904;49.152;11.004;2023-06-22T08:56:35;5.85;;;4.22;;
9729;SDS011;4904;49.152;11.004;2023-06-22T08:59:02;5.07;;;3.90;;
9729;SDS011;4904;49.152;11.004;2023-06-22T09:01:29;5.75;;;4.35;;
9729;SDS011;4904;49.152;11.004;2023-06-22T09:03:56;6.03;;;4.25;;
9729;SDS011;4904;49.152;11.004;2023-06-22T09:06:24;7.13;;;4.55;;
9729;SDS011;4904;49.152;11.004;2023-06-22T09:08:51;6.55;;;4.43;;
9729;SDS011;4904;49.152;11.004;2023-06-22T09:11:18;6.35;;;4.50;;
9729;SDS011;4904;49.152;11.004;2023-06-22T09:13:47;6.50;;;4.40;;
9729;SDS011;4904;49.152;11.004;2023-06-22T09:16:14;6.00;;;4.00;;
9729;SDS011;4904;49.152;11.004;2023-06-22T09:18:41;6.38;;;4.38;;
9729;SDS011;4904;49.152;11.004;2023-06-22T09:21:08;8.07;;;4.60;;
9729;SDS011;4904;49.152;11.004;2023-06-22T09:23:35;4.97;;;3.85;;
9729;SDS011;4904;49.152;11.004;2023-06-22T09:26:02;7.60;;;4.80;;
9729;SDS011;4904;49.152;11.004;2023-06-22T09:28:29;5.90;;;4.32;;
9729;SDS011;4904;49.152;11.004;2023-06-22T09:30:57;6.15;;;4.28;;
9729;SDS011;4904;49.152;11.004;2023-06-22T09:33:25;5.20;;;3.88;;
9729;SDS011;4904;49.152;11.004;2023-06-22T09:35:51;6.35;;;4.13;;
9729;SDS011;4904;49.152;11.004;2023-06-22T09:38:18;11.27;;;4.68;;
9729;SDS011;4904;49.152;11.004;2023-06-22T09:40:46;7.30;;;4.65;;
9729;SDS011;4904;49.152;11.004;2023-06-22T09:43:12;6.82;;;4.35;;
9729;SDS011;4904;49.152;11.004;2023-06-22T09:45:39;7.60;;;3.95;;
9729;SDS011;4904;49.152;11.004;2023-06-22T09:48:07;9.90;;;4.00;;
9729;SDS011;4904;49.152;11.004;2023-06-22T09:50:34;8.05;;;4.53;;
9729;SDS011;4904;49.152;11.004;2023-06-22T09:53:02;7.57;;;4.35;;
9729;SDS011;4904;49.152;11.004;2023-06-22T09:55:29;9.65;;;4.45;;
9729;SDS011;4904;49.152;11.004;2023-06-22T09:57:56;7.50;;;4.63;;
9729;SDS011;4904;49.152;11.004;2023-06-22T10:00:23;8.18;;;4.20;;
9729;SDS011;4904;49.152;11.004;2023-06-22T10:02:51;4.93;;;4.10;;
9729;SDS011;4904;49.152;11.004;2023-06-22T10:05:20;8.38;;;4.65;;
9729;SDS011;4904;49.152;11.004;2023-06-22T10:07:47;7.25;;;4.30;;
9729;SDS011;4904;49.152;11.004;2023-06-22T10:10:14;7.68;;;4.68;;
9729;SDS011;4904;49.152;11.004;2023-06-22T10:12:41;8.68;;;4.85;;
9729;SDS011;4904;49.152;11.004;2023-06-22T10:15:11;6.50;;;4.68;;
9729;SDS011;4904;49.152;11.004;2023-06-22T10:17:38;10.60;;;4.55;;
9729;SDS011;4904;49.152;11.004;2023-06-22T10:20:05;10.70;;;4.80;;
9729;SDS011;4904;49.152;11.004;2023-06-22T10:22:38;8.48;;;4.65;;
9729;SDS011;4904;49.152;11.004;2023-06-22T10:25:06;9.70;;;4.60;;
9729;SDS011;4904;49.152;11.004;2023-06-22T10:27:33;9.05;;;4.97;;
9729;SDS011;4904;49.152;11.004;2023-06-22T10:30:00;10.50;;;4.78;;
9729;SDS011;4904;49.152;11.004;2023-06-22T10:32:27;7.72;;;4.20;;
9729;SDS011;4904;49.152;11.004;2023-06-22T10:34:54;8.05;;;4.70;;
9729;SDS011;4904;49.152;11.004;2023-06-22T10:37:21;8.25;;;4.93;;
9729;SDS011;4904;49.152;11.004;2023-06-22T10:39:50;10.13;;;4.90;;
9729;SDS011;4904;49.152;11.004;2023-06-22T10:42:17;8.48;;;4.88;;
9729;SDS011;4904;49.152;11.004;2023-06-22T10:44:44;7.72;;;4.30;;
9729;SDS011;4904;49.152;11.004;2023-06-22T10:47:10;9.27;;;4.60;;
9729;SDS011;4904;49.152;11.004;2023-06-22T10:49:38;10.13;;;5.15;;
9729;SDS011;4904;49.152;11.004;2023-06-22T10:52:05;6.82;;;4.88;;
9729;SDS011;4904;49.152;11.004;2023-06-22T10:54:33;9.40;;;5.00;;
9729;SDS011;4904;49.152;11.004;2023-06-22T10:57:02;7.50;;;4.93;;
9729;SDS011;4904;49.152;11.004;2023-06-22T10:59:29;6.65;;;4.80;;
9729;SDS011;4904;49.152;11.004;2023-06-22T11:01:56;9.88;;;5.03;;
9729;SDS011;4904;49.152;11.004;2023-06-22T11:04:24;9.57;;;4.90;;
9729;SDS011;4904;49.152;11.004;2023-06-22T11:06:51;9.07;;;4.72;;
9729;SDS011;4904;49.152;11.004;2023-06-22T11:09:18;7.50;;;4.93;;
9729;SDS011;4904;49.152;11.004;2023-06-22T11:11:46;7.35;;;4.65;;
9729;SDS011;4904;49.152;11.004;2023-06-22T11:14:14;13.70;;;5.03;;
9729;SDS011;4904;49.152;11.004;2023-06-22T11:16:41;6.88;;;4.80;;
9729;SDS011;4904;49.152;11.004;2023-06-22T11:19:08;11.02;;;5.00;;
9729;SDS011;4904;49.152;11.004;2023-06-22T11:21:35;9.60;;;4.70;;
9729;SDS011;4904;49.152;11.004;2023-06-22T11:24:02;10.13;;;5.00;;
9729;SDS011;4904;49.152;11.004;2023-06-22T11:26:29;8.23;;;4.53;;
9729;SDS011;4904;49.152;11.004;2023-06-22T11:28:56;10.77;;;5.15;;
9729;SDS011;4904;49.152;11.004;2023-06-22T11:31:25;9.98;;;5.25;;
9729;SDS011;4904;49.152;11.004;2023-06-22T11:33:52;10.07;;;5.10;;
9729;SDS011;4904;49.152;11.004;2023-06-22T11:36:19;8.70;;;4.78;;
9729;SDS011;4904;49.152;11.004;2023-06-22T11:38:46;12.35;;;5.10;;
9729;SDS011;4904;49.152;11.004;2023-06-22T11:41:13;8.32;;;5.55;;
9729;SDS011;4904;49.152;11.004;2023-06-22T11:43:40;10.98;;;5.38;;
9729;SDS011;4904;49.152;11.004;2023-06-22T11:46:07;7.57;;;4.97;;
9729;SDS011;4904;49.152;11.004;2023-06-22T11:48:35;9.88;;;5.00;;
9729;SDS011;4904;49.152;11.004;2023-06-22T11:51:03;9.82;;;5.25;;
9729;SDS011;4904;49.152;11.004;2023-06-22T11:53:31;10.93;;;5.05;;
9729;SDS011;4904;49.152;11.004;2023-06-22T11:55:59;8.32;;;5.07;;
9729;SDS011;4904;49.152;11.004;2023-06-22T11:58:26;9.38;;;5.45;;
9729;SDS011;4904;49.152;11.004;2023-06-22T12:00:53;12.15;;;5.30;;
9729;SDS011;4904;49.152;11.004;2023-06-22T12:03:20;9.43;;;4.95;;
9729;SDS011;4904;49.152;11.004;2023-06-22T12:05:49;10.55;;;4.80;;
9729;SDS011;4904;49.152;11.004;2023-06-22T12:08:16;13.68;;;4.97;;
9729;SDS011;4904;49.152;11.004;2023-06-22T12:10:43;8.90;;;4.97;;
9729;SDS011;4904;49.152;11.004;2023-06-22T12:13:10;12.27;;;5.35;;
9729;SDS011;4904;49.152;11.004;2023-06-22T12:15:37;13.63;;;5.70;;
9729;SDS011;4904;49.152;11.004;2023-06-22T12:18:04;11.57;;;4.90;;
9729;SDS011;4904;49.152;11.004;2023-06-22T12:20:31;10.10;;;5.85;;
9729;SDS011;4904;49.152;11.004;2023-06-22T12:23:00;8.82;;;5.32;;
9729;SDS011;4904;49.152;11.004;2023-06-22T12:25:27;10.73;;;5.43;;
9729;SDS011;4904;49.152;11.004;2023-06-22T12:27:54;11.02;;;5.53;;
9729;SDS011;4904;49.152;11.004;2023-06-22T12:30:21;11.02;;;5.60;;
9729;SDS011;4904;49.152;11.004;2023-06-22T12:32:48;10.20;;;5.25;;
9729;SDS011;4904;49.152;11.004;2023-06-22T12:35:16;10.93;;;5.15;;
9729;SDS011;4904;49.152;11.004;2023-06-22T12:37:43;14.40;;;5.80;;
9729;SDS011;4904;49.152;11.004;2023-06-22T12:40:12;13.07;;;6.10;;
9729;SDS011;4904;49.152;11.004;2023-06-22T12:42:39;8.00;;;5.28;;
9729;SDS011;4904;49.152;11.004;2023-06-22T12:45:07;11.57;;;5.93;;
9729;SDS011;4904;49.152;11.004;2023-06-22T12:47:35;11.48;;;5.80;;
9729;SDS011;4904;49.152;11.004;2023-06-22T12:50:02;14.55;;;5.78;;
9729;SDS011;4904;49.152;11.004;2023-06-22T12:52:29;9.70;;;5.68;;
9729;SDS011;4904;49.152;11.004;2023-06-22T12:54:57;12.90;;;5.70;;
9729;SDS011;4904;49.152;11.004;2023-06-22T12:57:25;10.85;;;5.40;;
9729;SDS011;4904;49.152;11.004;2023-06-22T12:59:52;12.48;;;5.25;;
9729;SDS011;4904;49.152;11.004;2023-06-22T13:02:19;14.77;;;5.68;;
9729;SDS011;4904;49.152;11.004;2023-06-22T13:04:46;10.10;;;5.63;;
9729;SDS011;4904;49.152;11.004;2023-06-22T13:07:13;10.85;;;5.32;;
9729;SDS011;4904;49.152;11.004;2023-06-22T13:09:40;12.07;;;5.65;;
9729;SDS011;4904;49.152;11.004;2023-06-22T13:12:07;11.45;;;5.53;;
9729;SDS011;4904;49.152;11.004;2023-06-22T13:14:36;11.50;;;5.68;;
9729;SDS011;4904;49.152;11.004;2023-06-22T13:17:03;9.30;;;5.72;;
9729;SDS011;4904;49.152;11.004;2023-06-22T13:19:30;11.93;;;5.70;;
9729;SDS011;4904;49.152;11.004;2023-06-22T13:21:57;10.10;;;5.60;;
9729;SDS011;4904;49.152;11.004;2023-06-22T13:24:25;9.82;;;5.55;;
9729;SDS011;4904;49.152;11.004;2023-06-22T13:26:52;13.93;;;6.20;;
9729;SDS011;4904;49.152;11.004;2023-06-22T13:29:20;13.00;;;5.95;;
9729;SDS011;4904;49.152;11.004;2023-06-22T13:31:48;11.60;;;6.20;;
9729;SDS011;4904;49.152;11.004;2023-06-22T13:34:15;9.90;;;6.15;;
9729;SDS011;4904;49.152;11.004;2023-06-22T13:36:42;8.07;;;5.75;;
9729;SDS011;4904;49.152;11.004;2023-06-22T13:39:09;14.65;;;5.80;;
9729;SDS011;4904;49.152;11.004;2023-06-22T13:41:36;10.25;;;6.32;;
9729;SDS011;4904;49.152;11.004;2023-06-22T13:44:03;15.05;;;6.03;;
9729;SDS011;4904;49.152;11.004;2023-06-22T13:46:29;16.08;;;6.72;;
9729;SDS011;4904;49.152;11.004;2023-06-22T13:48:58;11.80;;;6.18;;
9729;SDS011;4904;49.152;11.004;2023-06-22T13:51:24;11.32;;;5.90;;
9729;SDS011;4904;49.152;11.004;2023-06-22T13:53:51;10.15;;;6.20;;
9729;SDS011;4904;49.152;11.004;2023-06-22T13:56:19;14.20;;;6.13;;
9729;SDS011;4904;49.152;11.004;2023-06-22T13:58:46;12.00;;;7.00;;
9729;SDS011;4904;49.152;11.004;2023-06-22T14:01:14;16.83;;;6.82;;
9729;SDS011;4904;49.152;11.004;2023-06-22T14:03:40;15.55;;;6.65;;
9729;SDS011;4904;49.152;11.004;2023-06-22T14:06:11;11.13;;;5.78;;
9729;SDS011;4904;49.152;11.004;2023-06-22T14:08:38;11.80;;;6.30;;
9729;SDS011;4904;49.152;11.004;2023-06-22T14:11:04;12.57;;;5.93;;
9729;SDS011;4904;49.152;11.004;2023-06-22T14:13:31;13.30;;;6.55;;
9729;SDS011;4904;49.152;11.004;2023-06-22T14:15:58;13.20;;;6.65;;
9729;SDS011;4904;49.152;11.004;2023-06-22T14:18:25;16.15;;;6.43;;
9729;SDS011;4904;49.152;11.004;2023-06-22T14:20:52;12.98;;;6.35;;
9729;SDS011;4904;49.152;11.004;2023-06-22T14:23:21;11.82;;;6.53;;
9729;SDS011;4904;49.152;11.004;2023-06-22T14:25:48;13.43;;;6.53;;
9729;SDS011;4904;49.152;11.004;2023-06-22T14:28:15;12.43;;;6.20;;
9729;SDS011;4904;49.152;11.004;2023-06-22T14:30:42;15.23;;;6.55;;
9729;SDS011;4904;49.152;11.004;2023-06-22T14:33:09;12.02;;;6.88;;
9729;SDS011;4904;49.152;11.004;2023-06-22T14:35:36;16.50;;;6.15;;
9729;SDS011;4904;49.152;11.004;2023-06-22T14:38:03;12.38;;;6.30;;
9729;SDS011;4904;49.152;11.004;2023-06-22T14:40:32;15.75;;;6.22;;
9729;SDS011;4904;49.152;11.004;2023-06-22T14:42:58;13.13;;;6.63;;
9729;SDS011;4904;49.152;11.004;2023-06-22T14:45:25;13.57;;;6.47;;
9729;SDS011;4904;49.152;11.004;2023-06-22T14:47:52;12.75;;;6.20;;
9729;SDS011;4904;49.152;11.004;2023-06-22T14:50:19;11.57;;;6.15;;
9729;SDS011;4904;49.152;11.004;2023-06-22T14:52:46;13.15;;;6.35;;